createdAt,value
2017-02-06T00:00:26.635Z,20.62
2017-02-06T00:01:37.022Z,20.42
2017-02-06T00:02:47.309Z,20.55
2017-02-06T00:03:57.573Z,20.58
2017-02-06T00:05:08.215Z,20.55
2017-02-06T00:06:18.854Z,20.59
2017-02-06T00:07:29.849Z,20.58
2017-02-06T00:08:40.096Z,20.57
2017-02-06T00:09:50.737Z,20.54
2017-02-06T00:11:01.381Z,20.52
2017-02-06T00:12:10.850Z,20.52
2017-02-06T00:13:21.745Z,20.43
2017-02-06T00:14:32.007Z,20.54
2017-02-06T00:15:42.266Z,20.51
2017-02-06T00:16:52.534Z,20.5
2017-02-06T00:18:02.784Z,20.52
2017-02-06T00:19:13.291Z,20.61
2017-02-06T00:20:22.757Z,20.51
2017-02-06T00:21:33.397Z,20.43
2017-02-06T00:22:43.631Z,20.47
2017-02-06T00:23:53.921Z,20.58
2017-02-06T00:25:04.414Z,20.55
2017-02-06T00:26:13.873Z,20.58
2017-02-06T00:27:24.512Z,20.51
2017-02-06T00:28:34.753Z,20.55
2017-02-06T00:29:45.386Z,20.51
2017-02-06T00:30:56.175Z,20.51
2017-02-06T00:32:06.812Z,20.5
2017-02-06T00:33:17.050Z,20.58
2017-02-06T00:34:27.305Z,20.48
2017-02-06T00:35:37.936Z,20.39
2017-02-06T00:36:48.476Z,20.47
2017-02-06T00:37:59.120Z,20.54
2017-02-06T00:39:09.772Z,20.54
2017-02-06T00:40:19.644Z,20.43
2017-02-06T00:41:30.281Z,20.51
2017-02-06T00:42:41.164Z,20.42
2017-02-06T00:43:51.788Z,20.57
2017-02-06T00:45:02.432Z,20.54
2017-02-06T00:46:13.110Z,20.48
2017-02-06T00:47:23.393Z,20.51
2017-02-06T00:48:34.295Z,20.51
2017-02-06T00:49:44.928Z,20.55
2017-02-06T00:50:55.170Z,20.52
2017-02-06T00:52:05.413Z,20.52
2017-02-06T00:53:16.046Z,20.55
2017-02-06T00:54:27.214Z,20.47
2017-02-06T00:55:37.858Z,20.54
2017-02-06T00:56:48.494Z,20.52
2017-02-06T00:57:59.131Z,20.5
2017-02-06T00:59:09.386Z,20.54
2017-02-06T01:00:20.565Z,20.39
2017-02-06T01:01:31.211Z,20.42
2017-02-06T01:02:41.855Z,20.47
2017-02-06T01:03:52.483Z,20.43
2017-02-06T01:05:03.125Z,20.47
2017-02-06T01:06:14.020Z,20.48
2017-02-06T01:07:24.658Z,20.52
2017-02-06T01:08:34.911Z,20.42
2017-02-06T01:09:45.554Z,20.48
2017-02-06T01:10:56.198Z,20.47
2017-02-06T01:12:06.701Z,20.5
2017-02-06T01:13:16.950Z,20.5
2017-02-06T01:14:27.592Z,20.39
2017-02-06T01:15:37.453Z,20.42
2017-02-06T01:16:48.086Z,20.51
2017-02-06T01:17:58.659Z,20.41
2017-02-06T01:19:09.291Z,20.48
2017-02-06T01:20:19.920Z,20.43
2017-02-06T01:21:30.560Z,20.42
2017-02-06T01:22:40.819Z,20.51
2017-02-06T01:23:51.379Z,20.48
2017-02-06T01:25:01.620Z,20.52
2017-02-06T01:26:12.259Z,20.41
2017-02-06T01:27:21.719Z,20.42
2017-02-06T01:28:32.367Z,20.43
2017-02-06T01:29:42.487Z,20.41
2017-02-06T01:30:53.113Z,20.38
2017-02-06T01:32:03.759Z,20.41
2017-02-06T01:33:14.020Z,20.48
2017-02-06T01:34:23.873Z,20.32
2017-02-06T01:35:34.373Z,20.42
2017-02-06T01:36:44.621Z,20.41
2017-02-06T01:37:55.259Z,20.43
2017-02-06T01:39:05.522Z,20.41
2017-02-06T01:40:16.154Z,20.39
2017-02-06T01:41:27.051Z,20.39
2017-02-06T01:42:37.298Z,20.39
2017-02-06T01:43:47.550Z,20.33
2017-02-06T01:44:58.189Z,20.33
2017-02-06T01:46:08.437Z,20.36
2017-02-06T01:47:19.328Z,20.41
2017-02-06T01:48:30.262Z,20.38
2017-02-06T01:49:40.918Z,20.36
2017-02-06T01:50:51.177Z,20.33
2017-02-06T01:52:01.825Z,20.42
2017-02-06T01:53:12.330Z,20.33
2017-02-06T01:54:22.973Z,20.38
2017-02-06T01:55:33.620Z,20.36
2017-02-06T01:56:44.257Z,20.41
2017-02-06T01:57:54.135Z,20.35
2017-02-06T01:59:05.012Z,20.38
2017-02-06T02:00:15.648Z,20.32
2017-02-06T02:01:25.500Z,20.31
2017-02-06T02:02:35.355Z,20.42
2017-02-06T02:03:45.214Z,20.36
2017-02-06T02:04:55.734Z,20.36
2017-02-06T02:06:05.595Z,20.33
2017-02-06T02:07:15.830Z,20.38
2017-02-06T02:08:25.701Z,20.31
2017-02-06T02:09:35.565Z,20.41
2017-02-06T02:10:45.683Z,20.38
2017-02-06T02:11:56.334Z,20.41
2017-02-06T02:13:06.969Z,20.41
2017-02-06T02:14:17.212Z,20.39
2017-02-06T02:15:27.459Z,20.39
2017-02-06T02:16:38.415Z,20.39
2017-02-06T02:17:48.288Z,20.35
2017-02-06T02:18:58.928Z,20.36
2017-02-06T02:20:09.218Z,20.28
2017-02-06T02:21:19.900Z,20.36
2017-02-06T02:22:30.843Z,20.35
2017-02-06T02:23:41.104Z,20.38
2017-02-06T02:24:51.749Z,20.42
2017-02-06T02:26:01.603Z,20.36
2017-02-06T02:27:12.253Z,20.36
2017-02-06T02:28:23.156Z,20.38
2017-02-06T02:29:33.801Z,20.36
2017-02-06T02:30:44.053Z,20.32
2017-02-06T02:31:53.910Z,20.33
2017-02-06T02:33:04.161Z,20.39
2017-02-06T02:34:14.662Z,20.36
2017-02-06T02:35:24.183Z,20.38
2017-02-06T02:36:34.043Z,20.32
2017-02-06T02:37:44.682Z,20.38
2017-02-06T02:38:54.932Z,20.39
2017-02-06T02:40:05.850Z,20.32
2017-02-06T02:41:16.108Z,20.32
2017-02-06T02:42:26.763Z,20.36
2017-02-06T02:43:37.421Z,20.31
2017-02-06T02:44:48.080Z,20.39
2017-02-06T02:45:58.584Z,20.38
2017-02-06T02:47:08.841Z,20.35
2017-02-06T02:48:19.491Z,20.29
2017-02-06T02:49:30.139Z,20.26
2017-02-06T02:50:40.779Z,20.28
2017-02-06T02:51:51.280Z,20.32
2017-02-06T02:53:01.520Z,20.32
2017-02-06T02:54:11.786Z,20.36
2017-02-06T02:55:22.073Z,20.36
2017-02-06T02:56:32.356Z,20.36
2017-02-06T02:57:43.316Z,20.32
2017-02-06T02:58:53.577Z,20.32
2017-02-06T03:00:03.056Z,20.31
2017-02-06T03:01:12.914Z,20.28
2017-02-06T03:02:23.557Z,20.36
2017-02-06T03:03:34.451Z,20.26
2017-02-06T03:04:44.690Z,20.26
2017-02-06T03:05:54.946Z,20.29
2017-02-06T03:07:04.815Z,20.28
2017-02-06T03:08:15.465Z,20.28
2017-02-06T03:09:26.364Z,20.28
2017-02-06T03:10:36.628Z,20.28
2017-02-06T03:11:46.472Z,20.24
2017-02-06T03:12:56.716Z,20.31
2017-02-06T03:14:06.978Z,20.23
2017-02-06T03:15:17.478Z,20.2
2017-02-06T03:16:28.119Z,20.2
2017-02-06T03:17:38.757Z,20.17
2017-02-06T03:18:49.005Z,20.14
2017-02-06T03:19:59.663Z,20.16
2017-02-06T03:21:09.780Z,20.26
2017-02-06T03:22:20.028Z,20.29
2017-02-06T03:23:30.660Z,20.18
2017-02-06T03:24:40.909Z,20.16
2017-02-06T03:25:51.542Z,20.13
2017-02-06T03:27:02.162Z,20.24
2017-02-06T03:28:12.792Z,20.24
2017-02-06T03:29:23.130Z,20.23
2017-02-06T03:30:33.779Z,20.13
2017-02-06T03:31:44.459Z,20.18
2017-02-06T03:32:54.162Z,20.17
2017-02-06T03:34:04.023Z,20.21
2017-02-06T03:35:14.290Z,20.24
2017-02-06T03:36:24.147Z,20.14
2017-02-06T03:37:34.291Z,20.2
2017-02-06T03:38:45.178Z,20.17
2017-02-06T03:39:55.467Z,20.18
2017-02-06T03:41:05.324Z,20.18
2017-02-06T03:42:15.213Z,20.21
2017-02-06T03:43:25.370Z,20.2
2017-02-06T03:44:35.871Z,20.18
2017-02-06T03:45:46.536Z,20.23
2017-02-06T03:46:56.411Z,20.24
2017-02-06T03:48:06.670Z,20.2
2017-02-06T03:49:16.930Z,20.24
2017-02-06T03:50:27.118Z,20.18
2017-02-06T03:51:37.414Z,20.17
2017-02-06T03:52:48.062Z,20.2
2017-02-06T03:53:58.721Z,20.24
2017-02-06T03:55:09.370Z,20.24
2017-02-06T03:56:19.894Z,20.21
2017-02-06T03:57:30.135Z,20.18
2017-02-06T03:58:39.610Z,20.16
2017-02-06T03:59:49.461Z,20.28
2017-02-06T04:00:59.713Z,20.24
2017-02-06T04:02:09.877Z,20.21
2017-02-06T04:03:20.504Z,20.21
2017-02-06T04:04:30.770Z,20.23
2017-02-06T04:05:41.024Z,20.21
2017-02-06T04:06:51.652Z,20.2
2017-02-06T04:08:02.535Z,20.17
2017-02-06T04:09:13.185Z,20.18
2017-02-06T04:10:23.827Z,20.24
2017-02-06T04:11:34.081Z,20.16
2017-02-06T04:12:44.316Z,20.2
2017-02-06T04:13:54.827Z,20.2
2017-02-06T04:15:04.700Z,20.21
2017-02-06T04:16:15.355Z,20.18
2017-02-06T04:17:25.608Z,20.16
2017-02-06T04:18:35.857Z,20.05
2017-02-06T04:19:45.601Z,20.17
2017-02-06T04:20:56.241Z,20.23
2017-02-06T04:22:06.097Z,20.2
2017-02-06T04:23:16.367Z,20.23
2017-02-06T04:24:26.243Z,20.2
2017-02-06T04:25:37.127Z,20.18
2017-02-06T04:26:47.811Z,20.13
2017-02-06T04:27:57.674Z,20.13
2017-02-06T04:29:08.340Z,20.13
2017-02-06T04:30:18.583Z,20.13
2017-02-06T04:31:29.389Z,20.2
2017-02-06T04:32:39.247Z,20.2
2017-02-06T04:33:49.903Z,20.13
2017-02-06T04:35:00.157Z,20.14
2017-02-06T04:36:09.636Z,20.13
2017-02-06T04:37:20.198Z,20.2
2017-02-06T04:38:30.481Z,20.08
2017-02-06T04:39:40.726Z,20.11
2017-02-06T04:40:50.977Z,20.14
2017-02-06T04:42:01.639Z,20.06
2017-02-06T04:43:12.185Z,20.1
2017-02-06T04:44:22.841Z,20.11
2017-02-06T04:45:33.089Z,20.13
2017-02-06T04:46:42.167Z,20.2
2017-02-06T04:47:52.437Z,20.17
2017-02-06T04:49:02.968Z,20.2
2017-02-06T04:50:13.214Z,20.1
2017-02-06T04:51:23.473Z,20.11
2017-02-06T04:52:33.325Z,20.13
2017-02-06T04:53:43.977Z,20.13
2017-02-06T04:54:54.477Z,20.17
2017-02-06T04:56:04.356Z,20.14
2017-02-06T04:57:13.828Z,20.13
2017-02-06T04:58:24.464Z,20.13
2017-02-06T04:59:33.942Z,20.13
2017-02-06T05:00:44.821Z,20.1
2017-02-06T05:01:55.099Z,20.08
2017-02-06T05:03:05.734Z,20.1
2017-02-06T05:04:16.383Z,20.13
2017-02-06T05:05:26.248Z,20.1
2017-02-06T05:06:36.987Z,20.16
2017-02-06T05:07:47.152Z,20.14
2017-02-06T05:08:57.020Z,20.11
2017-02-06T05:10:06.899Z,20.08
2017-02-06T05:11:17.157Z,20.11
2017-02-06T05:12:28.048Z,20.11
2017-02-06T05:13:38.296Z,20.1
2017-02-06T05:14:48.560Z,20.13
2017-02-06T05:15:59.247Z,20.1
2017-02-06T05:17:09.894Z,20.11
2017-02-06T05:18:20.054Z,20.13
2017-02-06T05:19:30.304Z,20.13
2017-02-06T05:20:40.954Z,20.1
2017-02-06T05:21:51.194Z,20.13
2017-02-06T05:23:01.830Z,20.06
2017-02-06T05:24:12.733Z,20.03
2017-02-06T05:25:22.976Z,20.05
2017-02-06T05:26:33.620Z,20.11
2017-02-06T05:27:43.867Z,20.11
2017-02-06T05:28:53.342Z,20.13
2017-02-06T05:30:04.272Z,20.05
2017-02-06T05:31:14.933Z,20.11
2017-02-06T05:32:25.200Z,20.11
2017-02-06T05:33:35.840Z,20.06
2017-02-06T05:34:45.309Z,20.1
2017-02-06T05:35:55.824Z,20.08
2017-02-06T05:37:05.292Z,20.13
2017-02-06T05:38:15.181Z,20.2
2017-02-06T05:39:25.068Z,20.2
2017-02-06T05:40:35.316Z,20.21
2017-02-06T05:41:46.252Z,20.28
2017-02-06T05:42:56.910Z,20.33
2017-02-06T05:44:07.458Z,20.36
2017-02-06T05:45:17.695Z,20.52
2017-02-06T05:46:27.976Z,20.58
2017-02-06T05:47:37.716Z,20.55
2017-02-06T05:48:48.351Z,20.66
2017-02-06T05:49:59.008Z,20.7
2017-02-06T05:51:09.271Z,20.69
2017-02-06T05:52:19.901Z,20.77
2017-02-06T05:53:30.812Z,20.77
2017-02-06T05:54:41.094Z,20.91
2017-02-06T05:55:51.346Z,20.95
2017-02-06T05:57:01.596Z,20.97
2017-02-06T05:58:12.252Z,20.98
2017-02-06T05:59:23.306Z,21.14
2017-02-06T06:00:33.960Z,21.16
2017-02-06T06:01:44.228Z,21.14
2017-02-06T06:02:54.480Z,21.21
2017-02-06T06:04:05.135Z,21.27
2017-02-06T06:05:15.691Z,21.28
2017-02-06T06:06:25.564Z,21.37
2017-02-06T06:07:35.808Z,21.37
2017-02-06T06:08:46.746Z,21.38
2017-02-06T06:09:57.410Z,21.47
2017-02-06T06:11:07.985Z,21.54
2017-02-06T06:12:17.860Z,21.56
2017-02-06T06:13:28.114Z,21.52
2017-02-06T06:14:38.753Z,21.65
2017-02-06T06:15:48.603Z,21.64
2017-02-06T06:16:58.716Z,21.68
2017-02-06T06:18:09.402Z,21.75
2017-02-06T06:19:19.284Z,21.79
2017-02-06T06:20:29.541Z,21.74
2017-02-06T06:21:39.802Z,21.96
2017-02-06T06:22:50.311Z,21.98
2017-02-06T06:24:00.963Z,22
2017-02-06T06:25:11.233Z,21.99
2017-02-06T06:26:21.887Z,22.1
2017-02-06T06:27:32.143Z,22.06
2017-02-06T06:28:43.081Z,22.17
2017-02-06T06:29:53.744Z,22.22
2017-02-06T06:31:03.994Z,22.25
2017-02-06T06:32:14.248Z,22.25
2017-02-06T06:33:24.900Z,22.21
2017-02-06T06:34:35.423Z,22.25
2017-02-06T06:35:46.054Z,22.25
2017-02-06T06:36:56.332Z,22.4
2017-02-06T06:38:06.994Z,22.39
2017-02-06T06:39:16.862Z,22.43
2017-02-06T06:40:27.370Z,22.47
2017-02-06T06:41:37.281Z,22.54
2017-02-06T06:42:47.202Z,22.61
2017-02-06T06:43:57.470Z,22.52
2017-02-06T06:45:07.410Z,22.64
2017-02-06T06:46:18.301Z,22.6
2017-02-06T06:47:28.176Z,22.62
2017-02-06T06:48:38.440Z,22.58
2017-02-06T06:49:49.094Z,22.65
2017-02-06T06:50:59.747Z,22.61
2017-02-06T06:52:10.262Z,22.6
2017-02-06T06:53:20.972Z,22.6
2017-02-06T06:54:30.845Z,22.64
2017-02-06T06:55:41.109Z,22.73
2017-02-06T06:56:51.770Z,22.72
2017-02-06T06:58:02.745Z,22.75
2017-02-06T06:59:13.001Z,22.67
2017-02-06T07:00:22.496Z,22.76
2017-02-06T07:01:33.197Z,22.8
2017-02-06T07:02:43.726Z,22.79
2017-02-06T07:03:54.292Z,22.76
2017-02-06T07:05:04.974Z,22.82
2017-02-06T07:06:15.618Z,22.79
2017-02-06T07:07:25.903Z,22.79
2017-02-06T07:08:36.540Z,22.8
2017-02-06T07:09:47.031Z,22.82
2017-02-06T07:10:57.281Z,22.77
2017-02-06T07:12:07.518Z,22.76
2017-02-06T07:13:17.773Z,22.76
2017-02-06T07:14:28.420Z,22.73
2017-02-06T07:15:39.367Z,22.68
2017-02-06T07:16:50.043Z,22.7
2017-02-06T07:18:00.318Z,22.72
2017-02-06T07:19:10.958Z,22.67
2017-02-06T07:20:21.195Z,22.64
2017-02-06T07:21:32.091Z,22.67
2017-02-06T07:22:41.962Z,22.57
2017-02-06T07:23:52.219Z,22.57
2017-02-06T07:25:02.875Z,22.54
2017-02-06T07:26:12.746Z,22.43
2017-02-06T07:27:23.624Z,22.46
2017-02-06T07:28:34.271Z,22.37
2017-02-06T07:29:44.520Z,22.39
2017-02-06T07:30:54.390Z,22.3
2017-02-06T07:32:05.041Z,22.3
2017-02-06T07:33:15.166Z,22.33
2017-02-06T07:34:25.433Z,22.25
2017-02-06T07:35:36.068Z,22.12
2017-02-06T07:36:46.715Z,22.22
2017-02-06T07:37:56.969Z,22.24
2017-02-06T07:39:07.090Z,22.14
2017-02-06T07:40:16.946Z,22.06
2017-02-06T07:41:27.588Z,22.07
2017-02-06T07:42:37.445Z,21.98
2017-02-06T07:43:47.331Z,22
2017-02-06T07:44:57.889Z,21.98
2017-02-06T07:46:07.752Z,22
2017-02-06T07:47:18.034Z,22.02
2017-02-06T07:48:27.900Z,21.96
2017-02-06T07:49:37.814Z,21.96
2017-02-06T07:50:48.367Z,21.98
2017-02-06T07:51:57.850Z,21.91
2017-02-06T07:53:08.494Z,21.86
2017-02-06T07:54:18.790Z,21.86
2017-02-06T07:55:29.455Z,21.82
2017-02-06T07:56:39.973Z,21.9
2017-02-06T07:57:50.612Z,21.83
2017-02-06T07:59:01.257Z,21.83
2017-02-06T08:00:11.522Z,21.79
2017-02-06T08:01:21.771Z,21.75
2017-02-06T08:02:32.302Z,21.8
2017-02-06T08:03:42.556Z,21.72
2017-02-06T08:04:52.814Z,21.65
2017-02-06T08:06:03.059Z,21.64
2017-02-06T08:07:13.701Z,21.65
2017-02-06T08:08:24.596Z,21.64
2017-02-06T08:09:35.241Z,21.61
2017-02-06T08:10:45.879Z,21.62
2017-02-06T08:11:56.534Z,21.52
2017-02-06T08:13:06.784Z,21.59
2017-02-06T08:14:16.893Z,21.58
2017-02-06T08:15:27.159Z,21.58
2017-02-06T08:16:37.431Z,21.56
2017-02-06T08:17:47.285Z,21.53
2017-02-06T08:18:57.926Z,21.44
2017-02-06T08:20:08.829Z,21.47
2017-02-06T08:21:19.470Z,21.4
2017-02-06T08:22:29.940Z,21.47
2017-02-06T08:23:40.596Z,21.44
2017-02-06T08:24:51.149Z,21.37
2017-02-06T08:26:01.661Z,21.43
2017-02-06T08:27:12.309Z,21.46
2017-02-06T08:28:22.962Z,21.4
2017-02-06T08:29:33.208Z,21.46
2017-02-06T08:30:43.856Z,21.4
2017-02-06T08:31:54.474Z,21.35
2017-02-06T08:33:04.738Z,21.43
2017-02-06T08:34:15.406Z,21.37
2017-02-06T08:35:25.669Z,21.4
2017-02-06T08:36:36.314Z,21.37
2017-02-06T08:37:46.854Z,21.37
2017-02-06T08:38:57.520Z,21.37
2017-02-06T08:40:07.821Z,21.32
2017-02-06T08:41:18.462Z,21.4
2017-02-06T08:42:28.329Z,21.32
2017-02-06T08:43:38.886Z,21.4
2017-02-06T08:44:49.199Z,21.4
2017-02-06T08:45:59.471Z,21.37
2017-02-06T08:47:09.719Z,21.32
2017-02-06T08:48:20.352Z,21.37
2017-02-06T08:49:31.293Z,21.32
2017-02-06T08:50:41.543Z,21.25
2017-02-06T08:51:51.818Z,21.31
2017-02-06T08:53:02.069Z,21.28
2017-02-06T08:54:12.702Z,21.29
2017-02-06T08:55:23.596Z,21.32
2017-02-06T08:56:33.857Z,21.29
2017-02-06T08:57:44.491Z,21.27
2017-02-06T08:58:55.148Z,21.35
2017-02-06T09:00:05.794Z,21.32
2017-02-06T09:01:16.611Z,21.22
2017-02-06T09:02:26.872Z,21.24
2017-02-06T09:03:37.170Z,21.31
2017-02-06T09:04:47.044Z,21.32
2017-02-06T09:05:56.893Z,21.22
2017-02-06T09:07:07.060Z,21.24
2017-02-06T09:08:17.319Z,21.25
2017-02-06T09:09:28.252Z,21.25
2017-02-06T09:10:38.515Z,21.29
2017-02-06T09:11:49.149Z,21.25
2017-02-06T09:12:59.263Z,21.17
2017-02-06T09:14:09.911Z,21.27
2017-02-06T09:15:19.420Z,21.27
2017-02-06T09:16:29.278Z,21.27
2017-02-06T09:17:39.562Z,21.24
2017-02-06T09:18:49.706Z,21.22
2017-02-06T09:19:59.569Z,21.25
2017-02-06T09:21:10.207Z,21.17
2017-02-06T09:22:20.750Z,21.24
2017-02-06T09:23:31.437Z,21.27
2017-02-06T09:24:41.557Z,21.16
2017-02-06T09:25:52.226Z,21.25
2017-02-06T09:27:02.159Z,21.22
2017-02-06T09:28:12.417Z,21.22
2017-02-06T09:29:23.053Z,21.14
2017-02-06T09:30:32.774Z,21.24
2017-02-06T09:31:42.624Z,21.19
2017-02-06T09:32:53.263Z,21.19
2017-02-06T09:34:03.532Z,21.17
2017-02-06T09:35:14.209Z,21.16
2017-02-06T09:36:25.090Z,21.22
2017-02-06T09:37:35.726Z,21.16
2017-02-06T09:38:46.409Z,21.16
2017-02-06T09:39:56.674Z,21.25
2017-02-06T09:41:07.328Z,21.16
2017-02-06T09:42:17.951Z,21.1
2017-02-06T09:43:27.808Z,21.16
2017-02-06T09:44:38.055Z,21.19
2017-02-06T09:45:48.701Z,21.24
2017-02-06T09:46:58.951Z,21.14
2017-02-06T09:48:09.117Z,21.19
2017-02-06T09:49:19.767Z,21.17
2017-02-06T09:50:30.418Z,21.14
2017-02-06T09:51:40.710Z,21.19
2017-02-06T09:52:50.573Z,21.19
2017-02-06T09:54:01.076Z,21.16
2017-02-06T09:55:11.320Z,21.14
2017-02-06T09:56:21.961Z,21.16
2017-02-06T09:57:31.815Z,21.19
2017-02-06T09:58:42.053Z,21.17
2017-02-06T09:59:52.576Z,21.19
2017-02-06T10:01:02.435Z,21.12
2017-02-06T10:02:12.700Z,21.19
2017-02-06T10:03:22.574Z,21.25
2017-02-06T10:04:32.826Z,21.22
2017-02-06T10:05:43.375Z,21.21
2017-02-06T10:06:52.841Z,21.19
2017-02-06T10:08:03.141Z,21.22
2017-02-06T10:09:13.486Z,21.13
2017-02-06T10:10:23.801Z,21.21
2017-02-06T10:11:34.328Z,21.25
2017-02-06T10:12:44.227Z,21.17
2017-02-06T10:13:54.886Z,21.17
2017-02-06T10:15:05.539Z,21.24
2017-02-06T10:16:15.790Z,21.21
2017-02-06T10:17:26.284Z,21.22
2017-02-06T10:18:36.920Z,21.21
2017-02-06T10:19:46.803Z,21.24
2017-02-06T10:20:56.277Z,21.27
2017-02-06T10:22:06.921Z,21.24
2017-02-06T10:23:17.428Z,21.22
2017-02-06T10:24:27.683Z,21.24
2017-02-06T10:25:37.942Z,21.25
2017-02-06T10:26:48.194Z,21.21
2017-02-06T10:27:58.055Z,21.25
2017-02-06T10:29:08.582Z,21.29
2017-02-06T10:30:19.216Z,21.31
2017-02-06T10:31:29.470Z,21.22
2017-02-06T10:32:40.126Z,21.16
2017-02-06T10:33:50.131Z,21.22
2017-02-06T10:35:00.257Z,21.25
2017-02-06T10:36:10.152Z,21.28
2017-02-06T10:37:20.411Z,21.24
2017-02-06T10:38:31.054Z,21.25
2017-02-06T10:39:41.301Z,21.25
2017-02-06T10:40:51.309Z,21.22
2017-02-06T10:42:01.964Z,21.31
2017-02-06T10:43:11.842Z,21.25
2017-02-06T10:44:22.470Z,21.34
2017-02-06T10:45:32.738Z,21.22
2017-02-06T10:46:43.609Z,21.35
2017-02-06T10:47:54.256Z,21.24
2017-02-06T10:49:04.516Z,21.27
2017-02-06T10:50:14.770Z,21.34
2017-02-06T10:51:24.855Z,21.31
2017-02-06T10:52:34.977Z,21.29
2017-02-06T10:53:45.625Z,21.22
2017-02-06T10:54:55.511Z,21.27
2017-02-06T10:56:05.780Z,21.31
2017-02-06T10:57:15.249Z,21.25
2017-02-06T10:58:25.759Z,21.32
2017-02-06T10:59:36.051Z,21.35
2017-02-06T11:00:45.529Z,21.34
2017-02-06T11:01:56.190Z,21.27
2017-02-06T11:03:06.453Z,21.37
2017-02-06T11:04:16.662Z,21.32
2017-02-06T11:05:26.925Z,21.27
2017-02-06T11:06:37.620Z,21.38
2017-02-06T11:07:48.291Z,21.38
2017-02-06T11:08:58.930Z,21.4
2017-02-06T11:10:09.335Z,21.37
2017-02-06T11:11:19.991Z,21.37
2017-02-06T11:12:30.646Z,21.34
2017-02-06T11:13:40.913Z,21.32
2017-02-06T11:14:51.580Z,21.35
2017-02-06T11:16:01.705Z,21.37
2017-02-06T11:17:11.566Z,21.38
2017-02-06T11:18:22.254Z,21.35
2017-02-06T11:19:32.520Z,21.38
2017-02-06T11:20:42.797Z,21.4
2017-02-06T11:21:53.700Z,21.29
2017-02-06T11:23:03.565Z,21.38
2017-02-06T11:24:13.450Z,21.4
2017-02-06T11:25:23.713Z,21.37
2017-02-06T11:26:34.375Z,21.35
2017-02-06T11:27:44.500Z,21.37
2017-02-06T11:28:55.187Z,21.34
2017-02-06T11:30:05.047Z,21.4
2017-02-06T11:31:15.704Z,21.37
2017-02-06T11:32:26.333Z,21.34
2017-02-06T11:33:35.676Z,21.35
2017-02-06T11:34:45.576Z,21.37
2017-02-06T11:35:56.232Z,21.38
2017-02-06T11:37:06.909Z,21.35
2017-02-06T11:38:16.793Z,21.32
2017-02-06T11:39:27.346Z,21.42
2017-02-06T11:40:37.982Z,21.37
2017-02-06T11:41:47.880Z,21.4
2017-02-06T11:42:57.868Z,21.43
2017-02-06T11:44:08.511Z,21.37
2017-02-06T11:45:18.633Z,21.34
2017-02-06T11:46:28.912Z,21.35
2017-02-06T11:47:39.688Z,21.35
2017-02-06T11:48:49.546Z,21.37
2017-02-06T11:50:00.185Z,21.4
2017-02-06T11:51:10.284Z,21.35
2017-02-06T11:52:20.958Z,21.37
2017-02-06T11:53:31.597Z,21.32
2017-02-06T11:54:41.871Z,21.35
2017-02-06T11:55:52.541Z,21.42
2017-02-06T11:57:03.485Z,21.34
2017-02-06T11:58:14.161Z,21.35
2017-02-06T11:59:24.452Z,21.4
2017-02-06T12:00:35.098Z,21.4
2017-02-06T12:01:45.756Z,21.32
2017-02-06T12:02:55.468Z,21.46
2017-02-06T12:04:05.715Z,21.34
2017-02-06T12:05:15.958Z,21.35
2017-02-06T12:06:26.595Z,21.34
2017-02-06T12:07:36.070Z,21.37
2017-02-06T12:08:46.210Z,21.35
2017-02-06T12:09:56.858Z,21.43
2017-02-06T12:11:06.721Z,21.37
2017-02-06T12:12:16.990Z,21.44
2017-02-06T12:13:26.840Z,21.37
2017-02-06T12:14:37.896Z,21.35
2017-02-06T12:15:48.621Z,21.35
2017-02-06T12:16:58.907Z,21.44
2017-02-06T12:18:09.171Z,21.42
2017-02-06T12:19:19.712Z,21.43
2017-02-06T12:20:30.630Z,21.32
2017-02-06T12:21:40.485Z,21.35
2017-02-06T12:22:50.732Z,21.42
2017-02-06T12:24:00.198Z,21.43
2017-02-06T12:25:10.454Z,21.4
2017-02-06T12:26:20.972Z,21.38
2017-02-06T12:27:31.631Z,21.37
2017-02-06T12:28:42.949Z,21.38
2017-02-06T12:29:52.428Z,21.38
2017-02-06T12:31:02.307Z,21.35
2017-02-06T12:32:12.812Z,21.32
2017-02-06T12:33:22.686Z,21.37
2017-02-06T12:34:32.168Z,21.35
2017-02-06T12:35:42.414Z,21.4
2017-02-06T12:36:52.663Z,21.29
2017-02-06T12:38:03.567Z,21.34
2017-02-06T12:39:13.426Z,21.42
2017-02-06T12:40:23.295Z,21.32
2017-02-06T12:41:33.546Z,21.31
2017-02-06T12:42:43.794Z,21.34
2017-02-06T12:43:54.288Z,21.27
2017-02-06T12:45:04.530Z,21.35
2017-02-06T12:46:14.793Z,21.38
2017-02-06T12:47:25.449Z,21.31
2017-02-06T12:48:36.101Z,21.29
2017-02-06T12:49:47.042Z,21.27
2017-02-06T12:50:57.309Z,21.27
2017-02-06T12:52:07.584Z,21.29
2017-02-06T12:53:17.839Z,21.29
2017-02-06T12:54:28.529Z,21.28
2017-02-06T12:55:38.697Z,21.29
2017-02-06T12:56:48.952Z,21.22
2017-02-06T12:57:59.206Z,21.34
2017-02-06T12:59:09.511Z,21.32
2017-02-06T13:00:20.168Z,21.29
2017-02-06T13:01:30.570Z,21.34
2017-02-06T13:02:40.834Z,21.28
2017-02-06T13:03:51.483Z,21.31
2017-02-06T13:05:01.742Z,21.25
2017-02-06T13:06:11.602Z,21.32
2017-02-06T13:07:22.547Z,21.31
2017-02-06T13:08:32.798Z,21.34
2017-02-06T13:09:43.053Z,21.24
2017-02-06T13:10:53.329Z,21.32
2017-02-06T13:12:03.587Z,21.24
2017-02-06T13:13:14.494Z,21.29
2017-02-06T13:14:24.749Z,21.29
2017-02-06T13:15:35.410Z,21.22
2017-02-06T13:16:46.054Z,21.34
2017-02-06T13:17:56.375Z,21.19
2017-02-06T13:19:06.495Z,21.24
2017-02-06T13:20:17.162Z,21.25
2017-02-06T13:21:27.806Z,21.25
2017-02-06T13:22:37.735Z,21.22
2017-02-06T13:23:48.372Z,21.29
2017-02-06T13:24:59.315Z,21.22
2017-02-06T13:26:09.564Z,21.27
2017-02-06T13:27:19.059Z,21.25
2017-02-06T13:28:28.934Z,21.27
2017-02-06T13:29:38.787Z,21.22
2017-02-06T13:30:49.283Z,21.16
2017-02-06T13:31:59.953Z,21.24
2017-02-06T13:33:10.646Z,21.22
2017-02-06T13:34:20.630Z,21.14
2017-02-06T13:35:31.268Z,21.17
2017-02-06T13:36:42.162Z,21.28
2017-02-06T13:37:52.819Z,21.16
2017-02-06T13:39:03.459Z,21.22
2017-02-06T13:40:14.035Z,21.21
2017-02-06T13:41:24.682Z,21.25
2017-02-06T13:42:34.778Z,21.17
2017-02-06T13:43:45.418Z,21.16
2017-02-06T13:44:55.283Z,21.14
2017-02-06T13:46:06.228Z,21.16
2017-02-06T13:47:16.870Z,21.13
2017-02-06T13:48:26.974Z,21.13
2017-02-06T13:49:37.234Z,21.13
2017-02-06T13:50:47.863Z,21.13
2017-02-06T13:51:58.104Z,21.13
2017-02-06T13:53:08.357Z,21.09
2017-02-06T13:54:18.473Z,21.13
2017-02-06T13:55:28.743Z,21.12
2017-02-06T13:56:39.410Z,21.13
2017-02-06T13:57:49.654Z,21.13
2017-02-06T13:58:59.940Z,21.14
2017-02-06T14:00:10.504Z,21.04
2017-02-06T14:01:21.189Z,21.17
2017-02-06T14:02:31.451Z,21.09
2017-02-06T14:03:41.744Z,21.1
2017-02-06T14:04:51.214Z,21.06
2017-02-06T14:06:02.099Z,21.06
2017-02-06T14:07:11.964Z,21.13
2017-02-06T14:08:22.601Z,21.09
2017-02-06T14:09:32.839Z,21.03
2017-02-06T14:10:43.087Z,21.07
2017-02-06T14:11:53.209Z,21.07
2017-02-06T14:13:03.859Z,21.07
2017-02-06T14:14:14.107Z,21.09
2017-02-06T14:15:23.604Z,21.09
2017-02-06T14:16:34.278Z,21.12
2017-02-06T14:17:44.379Z,21.14
2017-02-06T14:18:55.023Z,21.03
2017-02-06T14:20:04.898Z,21.04
2017-02-06T14:21:15.142Z,20.99
2017-02-06T14:22:25.001Z,21.19
2017-02-06T14:23:35.519Z,21.06
2017-02-06T14:24:45.764Z,21.03
2017-02-06T14:25:55.290Z,21.07
2017-02-06T14:27:05.537Z,21.09
2017-02-06T14:28:16.011Z,21.14
2017-02-06T14:29:27.139Z,21.06
2017-02-06T14:30:37.428Z,21.01
2017-02-06T14:31:47.680Z,21.1
2017-02-06T14:32:58.616Z,21.12
2017-02-06T14:34:09.270Z,21.06
2017-02-06T14:35:19.443Z,21.06
2017-02-06T14:36:29.312Z,21.04
2017-02-06T14:37:39.956Z,21.1
2017-02-06T14:38:50.216Z,21.12
2017-02-06T14:40:00.486Z,21.16
2017-02-06T14:41:10.509Z,21.09
2017-02-06T14:42:20.764Z,21.1
2017-02-06T14:43:31.402Z,21.04
2017-02-06T14:44:41.648Z,21.12
2017-02-06T14:45:52.285Z,21.07
2017-02-06T14:47:03.183Z,21.1
2017-02-06T14:48:13.055Z,21.09
2017-02-06T14:49:23.705Z,21.04
2017-02-06T14:50:33.968Z,21.17
2017-02-06T14:51:44.131Z,21.12
2017-02-06T14:52:55.082Z,21.12
2017-02-06T14:54:05.339Z,21.13
2017-02-06T14:55:15.636Z,21.12
2017-02-06T14:56:26.293Z,21.09
2017-02-06T14:57:36.949Z,21.19
2017-02-06T14:59:56.010Z,21.13
2017-02-06T15:01:06.645Z,21.13
2017-02-06T15:02:16.893Z,21.09
2017-02-06T15:03:27.142Z,21.04
2017-02-06T15:04:37.647Z,21.14
2017-02-06T15:05:48.292Z,21.03
2017-02-06T15:06:58.555Z,21.03
2017-02-06T15:08:09.212Z,21.07
2017-02-06T15:09:19.868Z,20.99
2017-02-06T15:10:30.703Z,21.09